createdAt,value
2018-01-21T00:01:38.460Z,98.48
2018-01-21T00:04:09.201Z,98.44
2018-01-21T00:06:40.142Z,98.41
2018-01-21T00:09:17.723Z,98.53
2018-01-21T00:11:48.582Z,98.49
2018-01-21T00:14:19.403Z,98.50
2018-01-21T00:16:50.181Z,98.57
2018-01-21T00:19:20.936Z,98.59
2018-01-21T00:21:51.698Z,98.62
2018-01-21T00:24:23.256Z,98.58
2018-01-21T00:26:54.008Z,98.54
2018-01-21T00:29:24.756Z,98.41
2018-01-21T00:31:55.669Z,98.36
2018-01-21T00:34:26.408Z,98.30
2018-01-21T00:36:57.174Z,98.28
2018-01-21T00:39:27.925Z,98.29
2018-01-21T00:41:58.856Z,98.16
2018-01-21T00:44:29.611Z,98.29
2018-01-21T00:47:00.372Z,98.35
2018-01-21T00:49:31.154Z,98.43
2018-01-21T00:52:02.036Z,98.46
2018-01-21T00:54:32.804Z,98.42
2018-01-21T00:57:03.577Z,98.40
2018-01-21T00:59:34.400Z,98.41
2018-01-21T01:02:05.200Z,98.44
2018-01-21T01:04:36.133Z,98.42
2018-01-21T01:07:06.884Z,98.42
2018-01-21T01:09:37.626Z,98.45
2018-01-21T01:12:08.498Z,98.36
2018-01-21T01:14:39.275Z,98.23
2018-01-21T01:17:10.038Z,98.15
2018-01-21T01:19:40.887Z,98.27
2018-01-21T01:22:11.730Z,98.36
2018-01-21T01:24:42.525Z,98.29
2018-01-21T01:27:13.305Z,98.31
2018-01-21T01:29:44.164Z,98.40
2018-01-21T01:32:21.110Z,98.46
2018-01-21T01:34:51.875Z,98.54
2018-01-21T01:37:22.727Z,98.55
2018-01-21T01:39:53.527Z,98.53
2018-01-21T01:42:24.303Z,98.54
2018-01-21T01:44:55.113Z,98.56
2018-01-21T01:47:25.912Z,98.57
2018-01-21T01:49:56.639Z,98.59
2018-01-21T01:52:27.528Z,98.55
2018-01-21T01:54:58.295Z,98.56
2018-01-21T01:57:29.116Z,98.53
2018-01-21T01:59:59.812Z,98.46
2018-01-21T02:02:30.612Z,98.19
2018-01-21T02:05:01.360Z,98.11
2018-01-21T02:07:32.157Z,98.14
2018-01-21T02:10:03.045Z,98.07
2018-01-21T02:12:33.903Z,97.98
2018-01-21T02:15:04.652Z,97.94
2018-01-21T02:17:35.410Z,97.83
2018-01-21T02:20:06.267Z,97.83
2018-01-21T02:22:37.016Z,97.87
2018-01-21T02:25:07.743Z,97.98
2018-01-21T02:27:38.492Z,98.02
2018-01-21T02:30:09.306Z,98.10
2018-01-21T02:32:40.124Z,98.12
2018-01-21T02:35:10.895Z,98.17
2018-01-21T02:37:41.736Z,98.04
2018-01-21T02:40:12.483Z,98.01
2018-01-21T02:42:43.288Z,98.02
2018-01-21T02:45:14.011Z,98.04
2018-01-21T02:47:44.772Z,98.10
2018-01-21T02:50:15.514Z,98.11
2018-01-21T02:52:46.378Z,98.13
2018-01-21T02:55:17.111Z,98.12
2018-01-21T02:57:47.869Z,98.13
2018-01-21T03:00:18.606Z,98.14
2018-01-21T03:02:49.469Z,98.08
2018-01-21T03:05:20.228Z,98.05
2018-01-21T03:07:52.124Z,98.13
2018-01-21T03:10:22.886Z,98.23
2018-01-21T03:12:53.632Z,98.24
2018-01-21T03:15:24.395Z,98.27
2018-01-21T03:17:55.156Z,98.19
2018-01-21T03:20:25.931Z,98.22
2018-01-21T03:22:56.692Z,98.22
2018-01-21T03:25:27.425Z,98.23
2018-01-21T03:27:58.189Z,98.26
2018-01-21T03:30:29.129Z,98.31
2018-01-21T03:32:59.923Z,98.28
2018-01-21T03:35:30.658Z,98.30
2018-01-21T03:38:01.439Z,98.27
2018-01-21T03:40:32.205Z,98.25
2018-01-21T03:43:03.139Z,98.18
2018-01-21T03:45:33.914Z,98.23
2018-01-21T03:48:04.660Z,98.16
2018-01-21T03:50:35.760Z,98.25
2018-01-21T03:53:06.552Z,98.27
2018-01-21T03:55:37.280Z,98.30
2018-01-21T03:58:08.152Z,98.31
2018-01-21T04:00:39.012Z,98.27
2018-01-21T04:03:09.873Z,98.26
2018-01-21T04:05:40.632Z,98.23
2018-01-21T04:08:11.380Z,98.27
2018-01-21T04:10:42.135Z,98.24
2018-01-21T04:13:12.912Z,98.26
2018-01-21T04:15:43.653Z,98.26
2018-01-21T04:18:14.410Z,98.30
2018-01-21T04:20:45.143Z,98.23
2018-01-21T04:23:15.925Z,98.16
2018-01-21T04:25:46.686Z,98.10
2018-01-21T04:28:17.461Z,98.08
2018-01-21T04:30:48.216Z,98.09
2018-01-21T04:33:18.972Z,98.00
2018-01-21T04:35:49.712Z,97.93
2018-01-21T04:38:20.469Z,97.96
2018-01-21T04:40:51.212Z,98.02
2018-01-21T04:43:21.955Z,98.01
2018-01-21T04:45:52.687Z,98.01
2018-01-21T04:48:23.454Z,97.94
2018-01-21T04:50:54.191Z,97.78
2018-01-21T04:53:24.985Z,97.62
2018-01-21T04:55:55.718Z,97.46
2018-01-21T04:58:26.479Z,97.31
2018-01-21T05:00:57.216Z,97.18
2018-01-21T05:03:27.980Z,97.06
2018-01-21T05:05:58.758Z,96.90
2018-01-21T05:08:29.508Z,96.66
2018-01-21T05:11:00.236Z,96.64
2018-01-21T05:13:30.987Z,96.47
2018-01-21T05:16:01.712Z,96.19
2018-01-21T05:18:32.477Z,96.25
2018-01-21T05:21:03.235Z,96.19
2018-01-21T05:23:33.996Z,96.43
2018-01-21T05:26:04.727Z,96.49
2018-01-21T05:28:35.488Z,96.21
2018-01-21T05:31:06.237Z,96.01
2018-01-21T05:33:36.981Z,96.18
2018-01-21T05:36:07.719Z,96.30
2018-01-21T05:38:38.498Z,96.13
2018-01-21T05:41:09.245Z,95.99
2018-01-21T05:43:40.009Z,95.97
2018-01-21T05:46:10.746Z,96.13
2018-01-21T05:48:41.524Z,95.88
2018-01-21T05:51:12.300Z,96.27
2018-01-21T05:53:43.065Z,96.44
2018-01-21T05:56:13.805Z,96.41
2018-01-21T05:58:44.588Z,96.35
2018-01-21T06:01:15.328Z,96.32
2018-01-21T06:03:46.064Z,96.19
2018-01-21T06:06:16.801Z,96.05
2018-01-21T06:08:47.548Z,95.87
2018-01-21T06:11:18.286Z,95.97
2018-01-21T06:13:49.061Z,96.03
2018-01-21T06:16:19.805Z,95.85
2018-01-21T06:18:50.543Z,95.99
2018-01-21T06:21:21.333Z,95.59
2018-01-21T06:23:52.129Z,95.53
2018-01-21T06:26:22.887Z,95.24
2018-01-21T06:28:53.659Z,94.82
2018-01-21T06:31:24.398Z,95.03
2018-01-21T06:33:55.208Z,94.92
2018-01-21T06:36:25.951Z,94.86
2018-01-21T06:38:56.730Z,94.95
2018-01-21T06:41:27.523Z,94.98
2018-01-21T06:43:58.276Z,94.86
2018-01-21T06:46:29.046Z,94.78
2018-01-21T06:48:59.788Z,94.46
2018-01-21T06:51:30.535Z,94.35
2018-01-21T06:54:01.322Z,94.45
2018-01-21T06:56:32.064Z,94.44
2018-01-21T06:59:02.845Z,94.46
2018-01-21T07:01:33.611Z,94.61
2018-01-21T07:04:04.450Z,94.59
2018-01-21T07:06:35.207Z,94.52
2018-01-21T07:09:05.974Z,94.44
2018-01-21T07:11:36.727Z,93.93
2018-01-21T07:14:07.508Z,93.56
2018-01-21T07:16:38.269Z,93.84
2018-01-21T07:19:09.037Z,93.62
2018-01-21T07:21:39.808Z,93.43
2018-01-21T07:24:10.598Z,93.33
2018-01-21T07:26:41.372Z,93.52
2018-01-21T07:29:12.154Z,93.56
2018-01-21T07:31:42.893Z,93.33
2018-01-21T07:34:13.660Z,93.49
2018-01-21T07:36:45.288Z,93.56
2018-01-21T07:39:16.077Z,93.66
2018-01-21T07:41:46.830Z,93.44
2018-01-21T07:44:17.587Z,93.57
2018-01-21T07:46:48.993Z,93.27
2018-01-21T07:49:19.802Z,93.01
2018-01-21T07:51:50.553Z,93.20
2018-01-21T07:54:21.333Z,92.85
2018-01-21T07:56:52.088Z,93.21
2018-01-21T07:59:22.853Z,92.70
2018-01-21T08:01:53.601Z,93.16
2018-01-21T08:04:26.228Z,93.22
2018-01-21T08:06:57.011Z,92.75
2018-01-21T08:09:27.772Z,92.55
2018-01-21T08:11:58.549Z,92.22
2018-01-21T08:14:29.332Z,91.56
2018-01-21T08:17:00.047Z,91.10
2018-01-21T08:19:30.792Z,91.17
2018-01-21T08:22:01.535Z,90.65
2018-01-21T08:24:32.408Z,90.08
2018-01-21T08:27:03.151Z,89.41
2018-01-21T08:29:33.923Z,89.15
2018-01-21T08:32:04.712Z,90.49
2018-01-21T08:34:41.620Z,90.54
2018-01-21T08:37:18.692Z,90.11
2018-01-21T08:39:56.076Z,89.86
2018-01-21T08:42:27.679Z,90.18
2018-01-21T08:44:58.416Z,89.75
2018-01-21T08:47:29.192Z,89.95
2018-01-21T08:50:00.056Z,89.61
2018-01-21T08:52:30.856Z,89.28
2018-01-21T08:55:01.643Z,89.64
2018-01-21T08:57:32.431Z,89.42
2018-01-21T09:00:03.255Z,89.21
2018-01-21T09:02:34.013Z,89.68
2018-01-21T09:05:04.767Z,89.62
2018-01-21T09:07:35.501Z,89.07
2018-01-21T09:10:06.272Z,89.50
2018-01-21T09:12:37.245Z,89.55
2018-01-21T09:15:08.103Z,89.09
2018-01-21T09:17:38.949Z,88.68
2018-01-21T09:20:09.696Z,88.55
2018-01-21T09:22:40.492Z,88.89
2018-01-21T09:25:11.255Z,88.49
2018-01-21T09:27:45.979Z,87.75
2018-01-21T09:30:16.824Z,87.59
2018-01-21T09:32:47.596Z,86.78
2018-01-21T09:35:18.394Z,87.18
2018-01-21T09:37:49.207Z,88.01
2018-01-21T09:40:19.968Z,88.39
2018-01-21T09:42:50.724Z,88.70
2018-01-21T09:45:21.505Z,88.88
2018-01-21T09:47:52.288Z,88.02
2018-01-21T09:50:23.037Z,87.13
2018-01-21T09:52:54.593Z,88.23
2018-01-21T09:55:25.929Z,88.97
2018-01-21T09:57:56.894Z,88.53
2018-01-21T10:00:28.200Z,89.07
2018-01-21T10:02:59.120Z,88.57
2018-01-21T10:05:30.228Z,88.98
2018-01-21T10:08:01.074Z,87.89
2018-01-21T10:10:32.091Z,88.12
2018-01-21T10:13:02.907Z,87.71
2018-01-21T10:15:34.001Z,87.27
2018-01-21T10:18:04.841Z,87.28
2018-01-21T10:20:35.647Z,87.62
2018-01-21T10:23:06.397Z,87.44
2018-01-21T10:25:37.170Z,88.04
2018-01-21T10:28:07.914Z,88.83
2018-01-21T10:30:38.663Z,88.05
2018-01-21T10:33:09.413Z,88.30
2018-01-21T10:35:40.179Z,88.27
2018-01-21T10:38:10.932Z,88.23
2018-01-21T10:40:42.800Z,88.76
2018-01-21T10:43:13.569Z,89.44
2018-01-21T10:45:46.462Z,89.52
2018-01-21T10:48:17.229Z,90.11
2018-01-21T10:50:48.004Z,90.67
2018-01-21T10:59:24.384Z,90.22
2018-01-21T11:01:55.141Z,90.21
2018-01-21T11:04:36.383Z,90.51
2018-01-21T11:07:07.219Z,90.52
2018-01-21T11:09:38.968Z,90.01
2018-01-21T11:12:09.738Z,90.44
2018-01-21T11:14:40.488Z,90.05
2018-01-21T11:20:10.372Z,90.50
2018-01-21T11:22:41.120Z,91.05
2018-01-21T11:25:11.871Z,90.95
2018-01-21T11:30:40.660Z,90.25
2018-01-21T11:33:11.420Z,90.38
2018-01-21T11:35:42.161Z,90.14
2018-01-21T11:38:15.005Z,89.46
2018-01-21T11:40:45.758Z,88.67
2018-01-21T11:43:16.491Z,89.07
2018-01-21T11:45:47.241Z,89.03
2018-01-21T11:48:18.011Z,89.26
2018-01-21T11:50:48.769Z,89.20
2018-01-21T11:53:19.948Z,89.00
2018-01-21T11:55:51.409Z,88.36
2018-01-21T11:58:22.236Z,88.04
2018-01-21T12:00:52.992Z,88.36
2018-01-21T12:03:23.761Z,88.02
2018-01-21T12:05:54.508Z,89.30
2018-01-21T12:08:25.247Z,89.88
2018-01-21T12:10:55.980Z,89.89
2018-01-21T12:13:30.806Z,89.41
2018-01-21T12:16:01.554Z,89.30
2018-01-21T12:18:32.379Z,88.71
2018-01-21T12:21:03.186Z,88.52
2018-01-21T12:23:33.969Z,88.92
2018-01-21T12:26:04.812Z,88.33
2018-01-21T12:28:35.567Z,89.37
2018-01-21T12:31:06.356Z,90.08
2018-01-21T12:33:37.190Z,90.89
2018-01-21T12:36:21.550Z,91.46
2018-01-21T12:38:52.333Z,91.42
2018-01-21T12:41:23.059Z,92.18
2018-01-21T12:43:53.824Z,91.96
2018-01-21T12:46:24.569Z,90.94
2018-01-21T12:48:56.351Z,90.61
2018-01-21T12:51:27.092Z,90.06
2018-01-21T12:53:57.932Z,90.36
2018-01-21T12:56:28.709Z,89.99
2018-01-21T12:58:59.484Z,89.19
2018-01-21T13:01:30.228Z,89.18
2018-01-21T13:04:01.004Z,88.69
2018-01-21T13:06:31.752Z,88.75
2018-01-21T13:09:02.540Z,88.63
2018-01-21T13:11:33.315Z,89.19
2018-01-21T13:14:04.054Z,89.19
2018-01-21T13:16:34.808Z,89.65
2018-01-21T13:19:05.559Z,89.86
2018-01-21T13:21:36.339Z,90.33
2018-01-21T13:24:07.100Z,90.60
2018-01-21T13:26:37.854Z,90.80
2018-01-21T13:29:30.568Z,91.16
2018-01-21T13:32:01.321Z,91.62
2018-01-21T13:34:32.128Z,91.66
2018-01-21T13:37:02.898Z,92.32
2018-01-21T13:39:33.649Z,92.50
2018-01-21T13:55:27.748Z,92.04
2018-01-21T13:57:58.504Z,91.68
2018-01-21T14:00:29.244Z,91.92
2018-01-21T14:02:59.985Z,92.21
2018-01-21T14:05:30.770Z,92.04
2018-01-21T14:08:01.529Z,91.84
2018-01-21T14:10:32.342Z,91.87
2018-01-21T14:13:03.112Z,92.16
2018-01-21T14:15:33.856Z,92.23
2018-01-21T14:18:04.607Z,91.41
2018-01-21T14:20:35.372Z,91.29
2018-01-21T14:23:06.158Z,92.05
2018-01-21T14:25:36.895Z,91.54
2018-01-21T14:28:07.639Z,91.84
2018-01-21T14:30:39.465Z,92.14
2018-01-21T14:33:10.292Z,92.12
2018-01-21T14:35:41.004Z,92.61
2018-01-21T14:38:26.505Z,92.95
2018-01-21T14:40:57.235Z,93.24
2018-01-21T14:43:27.963Z,93.27
2018-01-21T14:45:58.715Z,93.50
2018-01-21T14:48:29.499Z,93.50
2018-01-21T14:51:00.265Z,93.48
2018-01-21T14:53:31.044Z,93.97
2018-01-21T14:56:01.794Z,94.55
2018-01-21T14:58:32.604Z,94.74
2018-01-21T15:01:03.427Z,94.85
2018-01-21T15:03:36.483Z,94.92
2018-01-21T15:06:10.292Z,94.99
2018-01-21T15:08:41.152Z,94.70
2018-01-21T15:11:11.952Z,94.40
2018-01-21T15:13:43.814Z,94.48
2018-01-21T15:16:19.533Z,94.74
2018-01-21T15:18:50.307Z,94.81
2018-01-21T15:21:21.157Z,94.71
2018-01-21T15:23:51.859Z,94.82
2018-01-21T15:26:22.596Z,94.76
2018-01-21T15:28:53.528Z,94.63
2018-01-21T15:31:24.426Z,94.88
2018-01-21T15:33:55.259Z,95.13
2018-01-21T15:36:35.018Z,95.60
2018-01-21T15:39:05.768Z,95.74
2018-01-21T15:41:36.500Z,95.71
2018-01-21T15:44:07.348Z,95.90
2018-01-21T15:46:38.119Z,96.19
2018-01-21T15:49:09.047Z,96.44
2018-01-21T15:51:39.815Z,96.79
2018-01-21T15:54:10.651Z,96.70
2018-01-21T15:56:41.471Z,96.73
2018-01-21T15:59:14.646Z,96.97
2018-01-21T16:01:45.412Z,96.95
2018-01-21T16:04:16.190Z,96.93
2018-01-21T16:06:47.001Z,96.79
2018-01-21T16:12:22.970Z,96.84
2018-01-21T16:14:54.020Z,96.68
2018-01-21T16:17:24.857Z,96.59
2018-01-21T16:19:56.034Z,96.54
2018-01-21T16:22:26.860Z,96.38
2018-01-21T16:24:57.795Z,96.31
2018-01-21T16:27:28.644Z,96.18
2018-01-21T16:29:59.430Z,96.28
2018-01-21T16:32:30.257Z,96.33
2018-01-21T16:35:01.117Z,96.24
2018-01-21T16:37:44.156Z,96.36
2018-01-21T16:40:14.970Z,96.32
2018-01-21T16:42:45.777Z,96.31
2018-01-21T16:45:16.631Z,96.47
2018-01-21T16:47:47.372Z,96.53
2018-01-21T16:50:18.395Z,96.68
2018-01-21T16:52:49.239Z,96.66
2018-01-21T16:55:20.033Z,96.75
2018-01-21T16:57:51.276Z,96.87
2018-01-21T17:00:22.070Z,96.99
2018-01-21T17:02:52.936Z,96.99
2018-01-21T17:05:23.726Z,97.05
2018-01-21T17:07:54.566Z,97.25
2018-01-21T17:10:25.392Z,97.21
2018-01-21T17:12:56.206Z,97.13
2018-01-21T17:15:27.014Z,97.04
2018-01-21T17:17:57.791Z,96.93
2018-01-21T17:20:28.603Z,96.79
2018-01-21T17:22:59.783Z,96.71
2018-01-21T17:25:30.589Z,96.73
2018-01-21T17:28:01.400Z,96.46
2018-01-21T17:30:33.124Z,96.51
2018-01-21T17:33:03.979Z,96.55
2018-01-21T17:35:50.158Z,96.39
2018-01-21T17:38:20.940Z,96.24
2018-01-21T17:40:51.744Z,96.28
2018-01-21T17:43:22.515Z,96.38
2018-01-21T17:45:53.555Z,96.51
2018-01-21T17:48:24.441Z,96.63
2018-01-21T17:50:55.239Z,96.68
2018-01-21T17:53:26.152Z,96.76
2018-01-21T17:55:56.951Z,96.96
2018-01-21T17:58:28.459Z,97.14
2018-01-21T18:00:59.482Z,97.29
2018-01-21T18:03:30.340Z,97.40
2018-01-21T18:06:01.166Z,97.54
2018-01-21T18:08:32.075Z,97.63
2018-01-21T18:11:03.942Z,97.77
2018-01-21T18:13:34.704Z,97.78
2018-01-21T18:16:07.527Z,97.76
2018-01-21T18:18:38.289Z,97.65
2018-01-21T18:21:09.122Z,97.59
2018-01-21T18:23:39.984Z,97.37
2018-01-21T18:26:10.824Z,97.14
2018-01-21T18:28:41.650Z,97.08
2018-01-21T18:31:13.130Z,97.08
2018-01-21T18:33:45.986Z,97.08
2018-01-21T18:36:16.810Z,96.81
2018-01-21T18:38:47.785Z,96.75
2018-01-21T18:41:18.642Z,96.64
2018-01-21T18:43:49.511Z,96.58
2018-01-21T18:46:20.439Z,96.39
2018-01-21T18:48:51.287Z,96.12
2018-01-21T18:51:23.125Z,95.98
2018-01-21T18:53:53.974Z,96.12
2018-01-21T18:56:31.242Z,96.18
2018-01-21T18:59:02.034Z,96.18
2018-01-21T19:01:32.846Z,96.38
2018-01-21T19:04:03.665Z,96.76
2018-01-21T19:06:34.480Z,96.91
2018-01-21T19:09:05.282Z,97.12
2018-01-21T19:11:36.077Z,97.49
2018-01-21T19:14:06.856Z,97.66
2018-01-21T19:16:37.801Z,97.83
2018-01-21T19:19:08.581Z,97.87
2018-01-21T19:21:39.404Z,97.84
2018-01-21T19:24:10.279Z,97.86
2018-01-21T19:26:41.404Z,97.97
2018-01-21T19:29:12.170Z,97.87
2018-01-21T19:31:42.977Z,97.91
2018-01-21T19:34:13.771Z,97.89
2018-01-21T19:36:44.581Z,97.96
2018-01-21T19:52:40.036Z,98.02
2018-01-21T19:55:10.803Z,97.84
2018-01-21T19:57:41.752Z,97.84
2018-01-21T20:00:12.520Z,97.82
2018-01-21T20:02:43.331Z,97.77
2018-01-21T20:05:14.218Z,97.85
2018-01-21T20:07:45.038Z,97.80
2018-01-21T20:10:15.897Z,97.85
2018-01-21T20:12:47.595Z,97.92
2018-01-21T20:15:18.472Z,98.29
2018-01-21T20:17:49.323Z,98.37
2018-01-21T20:20:20.263Z,98.39
2018-01-21T20:22:51.074Z,98.34
2018-01-21T20:25:21.901Z,98.56
2018-01-21T20:27:52.735Z,98.69
2018-01-21T20:30:23.543Z,98.47
2018-01-21T20:32:54.347Z,98.67
2018-01-21T20:35:25.163Z,98.62
2018-01-21T20:37:55.996Z,98.40
2018-01-21T20:40:26.828Z,98.50
2018-01-21T20:42:57.656Z,98.60
2018-01-21T20:45:28.500Z,98.51
2018-01-21T20:47:59.264Z,98.50
2018-01-21T20:50:30.094Z,98.40
2018-01-21T20:53:07.219Z,98.49
2018-01-21T20:55:38.123Z,98.64
2018-01-21T20:58:08.978Z,98.81
2018-01-21T21:00:39.949Z,98.94
2018-01-21T21:03:10.801Z,98.92
2018-01-21T21:05:41.563Z,98.85
2018-01-21T21:08:12.316Z,98.89
2018-01-21T21:10:43.136Z,98.84
2018-01-21T21:13:13.956Z,98.91
2018-01-21T21:15:44.760Z,98.89
2018-01-21T21:18:15.517Z,98.88
2018-01-21T21:20:46.309Z,98.92
2018-01-21T21:23:17.266Z,99.11
2018-01-21T21:25:48.093Z,99.12
2018-01-21T21:28:19.040Z,99.04
2018-01-21T21:30:49.898Z,98.90
2018-01-21T21:33:20.720Z,98.69
2018-01-21T21:35:51.528Z,98.67
2018-01-21T21:38:22.424Z,98.75
2018-01-21T21:40:53.244Z,98.70
2018-01-21T21:43:24.061Z,98.72
2018-01-21T21:45:54.948Z,98.79
2018-01-21T21:48:25.817Z,98.86
2018-01-21T21:50:56.551Z,98.97
2018-01-21T21:53:27.338Z,99.10
2018-01-21T21:55:58.151Z,99.08
2018-01-21T21:58:35.766Z,99.17
2018-01-21T22:01:06.544Z,99.44
2018-01-21T22:03:37.319Z,99.62
2018-01-21T22:06:08.106Z,99.81
2018-01-21T22:08:38.917Z,99.66
2018-01-21T22:11:09.680Z,99.70
2018-01-21T22:13:40.472Z,99.90
2018-01-21T22:16:11.281Z,99.82
2018-01-21T22:18:46.704Z,99.86
2018-01-21T22:21:17.464Z,99.73
2018-01-21T22:23:48.297Z,99.84
2018-01-21T22:26:19.146Z,99.56
2018-01-21T22:28:49.910Z,99.65
2018-01-21T22:31:20.688Z,99.66
2018-01-21T22:33:51.520Z,99.72
2018-01-21T22:36:22.284Z,99.78
2018-01-21T22:38:53.135Z,99.72
2018-01-21T22:41:23.872Z,99.67
2018-01-21T22:43:54.686Z,99.62
2018-01-21T22:46:25.444Z,99.53
2018-01-21T22:48:56.347Z,99.43
2018-01-21T22:51:27.112Z,99.44
2018-01-21T22:53:58.013Z,99.41
2018-01-21T22:56:28.788Z,99.33
2018-01-21T22:58:59.570Z,99.29
2018-01-21T23:01:30.363Z,99.46
2018-01-21T23:04:01.165Z,99.46
2018-01-21T23:06:31.939Z,99.57
2018-01-21T23:09:02.742Z,99.65
2018-01-21T23:11:33.502Z,99.55
2018-01-21T23:14:04.261Z,99.34
2018-01-21T23:16:35.005Z,99.28
2018-01-21T23:19:05.922Z,99.35
2018-01-21T23:21:36.681Z,99.32
2018-01-21T23:24:07.450Z,99.02
2018-01-21T23:26:38.188Z,99.00
2018-01-21T23:29:09.022Z,98.81
2018-01-21T23:31:39.760Z,98.89
2018-01-21T23:34:10.551Z,98.76
2018-01-21T23:36:41.284Z,98.60
2018-01-21T23:39:12.056Z,98.38
2018-01-21T23:41:42.796Z,98.41
2018-01-21T23:44:13.548Z,98.59
2018-01-21T23:46:44.296Z,98.66
2018-01-21T23:49:15.040Z,98.62
2018-01-21T23:51:45.792Z,98.57
2018-01-21T23:54:16.594Z,98.60
2018-01-21T23:56:47.391Z,98.62
2018-01-21T23:59:18.167Z,98.49
